CheckWX is a tool to help pilots better visualize weather data.  It is not intended as a substitute for an official pre-flight weather briefing.

01:05:22 UTC

KRIV METAR
March ARB Airport
Riverside, California, USA
Current

1 hour ago

KRIV 232358Z AUTO 29007KT 10SM CLR 14/M01 A3022 RMK AO2 SLP238 T01381006 10146 20093 57008
Observed
Feb-23 @ 23:58 UTC
Wind
  • 290° at 7 KTS
Visibility
10 SM
Flight Rules
VFR
Cloud Levels
  • Clear skies
Temperature
14°C / 57°F
Dewpoint
-1°C / 30°F
Humidity
36%
Altimeter
30.22" Hg
Pressure
1023.8 hPa
Previous

2 hours ago

KRIV 232258Z AUTO 29007KT 10SM CLR 15/M02 A3023 RMK AO2 SLP242 T01461019
Observed
Feb-23 @ 22:58 UTC
Wind
  • 290° at 7 KTS
Visibility
10 SM
Flight Rules
VFR
Cloud Levels
  • Clear skies
Temperature
15°C / 59°F
Dewpoint
-2°C / 28°F
Humidity
31%
Altimeter
30.23" Hg
Pressure
1024.2 hPa
Previous

3 hours ago

KRIV 232158Z AUTO 36004KT 10SM CLR 14/M03 A3023 RMK AO2 SLP241 T01381030
Observed
Feb-23 @ 21:58 UTC
Wind
  • 360° at 4 KTS
Visibility
10 SM
Flight Rules
VFR
Cloud Levels
  • Clear skies
Temperature
14°C / 57°F
Dewpoint
-3°C / 27°F
Humidity
31%
Altimeter
30.23" Hg
Pressure
1024.1 hPa